sensor_id;sensor_type;location;lat;lon;timestamp;temperature;humidity
11320;DHT22;5715;48.234;14.320;2023-09-19T00:03:15;16.80;99.90
11320;DHT22;5715;48.234;14.320;2023-09-19T00:06:11;16.90;99.90
11320;DHT22;5715;48.234;14.320;2023-09-19T00:09:23;16.90;99.90
11320;DHT22;5715;48.234;14.320;2023-09-19T00:12:26;16.90;99.90
11320;DHT22;5715;48.234;14.320;2023-09-19T00:15:26;16.90;99.90
11320;DHT22;5715;48.234;14.320;2023-09-19T00:18:39;16.90;99.90
11320;DHT22;5715;48.234;14.320;2023-09-19T00:21:32;16.90;99.90
11320;DHT22;5715;48.234;14.320;2023-09-19T00:24:34;16.90;99.90
11320;DHT22;5715;48.234;14.320;2023-09-19T00:27:46;16.80;99.90
11320;DHT22;5715;48.234;14.320;2023-09-19T00:30:47;16.80;99.90
11320;DHT22;5715;48.234;14.320;2023-09-19T00:33:46;16.80;99.90
11320;DHT22;5715;48.234;14.320;2023-09-19T00:36:39;16.80;99.90
11320;DHT22;5715;48.234;14.320;2023-09-19T00:39:27;16.80;99.90
11320;DHT22;5715;48.234;14.320;2023-09-19T00:42:25;16.80;99.90
11320;DHT22;5715;48.234;14.320;2023-09-19T00:45:17;16.70;99.90
11320;DHT22;5715;48.234;14.320;2023-09-19T00:48:19;16.80;99.90
11320;DHT22;5715;48.234;14.320;2023-09-19T00:51:15;16.70;99.90
11320;DHT22;5715;48.234;14.320;2023-09-19T00:54:16;16.80;99.90
11320;DHT22;5715;48.234;14.320;2023-09-19T00:57:08;16.70;99.90
11320;DHT22;5715;48.234;14.320;2023-09-19T01:00:14;16.80;99.90
11320;DHT22;5715;48.234;14.320;2023-09-19T01:03:46;16.70;99.90
11320;DHT22;5715;48.234;14.320;2023-09-19T01:06:37;16.70;99.90
11320;DHT22;5715;48.234;14.320;2023-09-19T01:09:33;16.70;99.90
11320;DHT22;5715;48.234;14.320;2023-09-19T01:13:08;16.70;99.90
11320;DHT22;5715;48.234;14.320;2023-09-19T01:16:48;16.70;99.90
11320;DHT22;5715;48.234;14.320;2023-09-19T01:31:24;16.80;99.90
11320;DHT22;5715;48.234;14.320;2023-09-19T01:34:19;16.70;99.90
11320;DHT22;5715;48.234;14.320;2023-09-19T01:37:06;16.70;99.90
11320;DHT22;5715;48.234;14.320;2023-09-19T01:40:23;16.70;99.90
11320;DHT22;5715;48.234;14.320;2023-09-19T01:43:22;16.70;99.90
11320;DHT22;5715;48.234;14.320;2023-09-19T01:46:22;16.70;99.90
11320;DHT22;5715;48.234;14.320;2023-09-19T01:49:18;16.70;99.90
11320;DHT22;5715;48.234;14.320;2023-09-19T01:52:15;16.70;99.90
11320;DHT22;5715;48.234;14.320;2023-09-19T01:55:09;16.70;99.90
11320;DHT22;5715;48.234;14.320;2023-09-19T01:58:06;16.70;99.90
11320;DHT22;5715;48.234;14.320;2023-09-19T02:00:56;16.70;99.90
11320;DHT22;5715;48.234;14.320;2023-09-19T02:03:48;16.70;99.90
11320;DHT22;5715;48.234;14.320;2023-09-19T02:06:41;16.60;99.90
11320;DHT22;5715;48.234;14.320;2023-09-19T02:09:29;16.60;99.90
11320;DHT22;5715;48.234;14.320;2023-09-19T02:12:16;16.60;99.90
11320;DHT22;5715;48.234;14.320;2023-09-19T02:15:05;16.50;99.90
11320;DHT22;5715;48.234;14.320;2023-09-19T02:17:54;16.50;99.90
11320;DHT22;5715;48.234;14.320;2023-09-19T02:20:44;16.40;99.90
11320;DHT22;5715;48.234;14.320;2023-09-19T02:23:33;16.40;99.90
11320;DHT22;5715;48.234;14.320;2023-09-19T02:26:21;16.40;99.90
11320;DHT22;5715;48.234;14.320;2023-09-19T02:29:11;16.30;99.90
11320;DHT22;5715;48.234;14.320;2023-09-19T02:32:00;16.30;99.90
11320;DHT22;5715;48.234;14.320;2023-09-19T02:34:49;16.30;99.90
11320;DHT22;5715;48.234;14.320;2023-09-19T02:37:38;16.40;99.90
11320;DHT22;5715;48.234;14.320;2023-09-19T02:40:29;16.40;99.90
11320;DHT22;5715;48.234;14.320;2023-09-19T02:43:17;16.40;99.90
11320;DHT22;5715;48.234;14.320;2023-09-19T02:46:04;16.40;99.90
11320;DHT22;5715;48.234;14.320;2023-09-19T02:48:52;16.40;99.90
11320;DHT22;5715;48.234;14.320;2023-09-19T02:51:42;16.40;99.90
11320;DHT22;5715;48.234;14.320;2023-09-19T02:54:29;16.30;99.90
11320;DHT22;5715;48.234;14.320;2023-09-19T02:57:17;16.30;99.90
11320;DHT22;5715;48.234;14.320;2023-09-19T03:00:07;16.30;99.90
11320;DHT22;5715;48.234;14.320;2023-09-19T03:02:57;16.30;99.90
11320;DHT22;5715;48.234;14.320;2023-09-19T03:05:44;16.30;99.90
11320;DHT22;5715;48.234;14.320;2023-09-19T03:08:39;16.30;99.90
11320;DHT22;5715;48.234;14.320;2023-09-19T03:11:36;16.30;99.90
11320;DHT22;5715;48.234;14.320;2023-09-19T03:14:41;16.20;99.90
11320;DHT22;5715;48.234;14.320;2023-09-19T03:17:36;16.20;99.90
11320;DHT22;5715;48.234;14.320;2023-09-19T03:20:53;16.20;99.90
11320;DHT22;5715;48.234;14.320;2023-09-19T03:23:44;16.20;99.90
11320;DHT22;5715;48.234;14.320;2023-09-19T03:26:41;16.20;99.90
11320;DHT22;5715;48.234;14.320;2023-09-19T03:29:38;16.30;99.90
11320;DHT22;5715;48.234;14.320;2023-09-19T03:36:07;16.20;99.90
11320;DHT22;5715;48.234;14.320;2023-09-19T03:39:09;16.20;99.90
11320;DHT22;5715;48.234;14.320;2023-09-19T03:42:06;16.10;99.90
11320;DHT22;5715;48.234;14.320;2023-09-19T03:45:07;16.10;99.90
11320;DHT22;5715;48.234;14.320;2023-09-19T03:48:28;16.10;99.90
11320;DHT22;5715;48.234;14.320;2023-09-19T03:51:16;16.10;99.90
11320;DHT22;5715;48.234;14.320;2023-09-19T03:54:22;16.10;99.90
11320;DHT22;5715;48.234;14.320;2023-09-19T03:57:16;16.10;99.90
11320;DHT22;5715;48.234;14.320;2023-09-19T04:00:08;16.00;99.90
11320;DHT22;5715;48.234;14.320;2023-09-19T04:03:21;16.00;99.90
11320;DHT22;5715;48.234;14.320;2023-09-19T04:06:16;16.00;99.90
11320;DHT22;5715;48.234;14.320;2023-09-19T04:09:05;16.00;99.90
11320;DHT22;5715;48.234;14.320;2023-09-19T04:12:09;16.00;99.90
11320;DHT22;5715;48.234;14.320;2023-09-19T04:15:19;16.00;99.90
11320;DHT22;5715;48.234;14.320;2023-09-19T04:18:16;16.00;99.90
11320;DHT22;5715;48.234;14.320;2023-09-19T04:21:05;15.90;99.90
11320;DHT22;5715;48.234;14.320;2023-09-19T04:23:56;15.90;99.90
11320;DHT22;5715;48.234;14.320;2023-09-19T04:26:47;15.90;99.90
11320;DHT22;5715;48.234;14.320;2023-09-19T04:29:44;15.80;99.90
11320;DHT22;5715;48.234;14.320;2023-09-19T04:32:51;15.80;99.90
11320;DHT22;5715;48.234;14.320;2023-09-19T04:36:08;15.80;99.90
11320;DHT22;5715;48.234;14.320;2023-09-19T04:39:29;15.80;99.90
11320;DHT22;5715;48.234;14.320;2023-09-19T04:42:23;15.80;99.90
11320;DHT22;5715;48.234;14.320;2023-09-19T04:45:21;15.80;99.90
11320;DHT22;5715;48.234;14.320;2023-09-19T04:48:21;15.80;99.90
11320;DHT22;5715;48.234;14.320;2023-09-19T04:51:20;15.80;99.90
11320;DHT22;5715;48.234;14.320;2023-09-19T04:54:12;15.80;99.90
11320;DHT22;5715;48.234;14.320;2023-09-19T04:57:00;15.80;99.90
11320;DHT22;5715;48.234;14.320;2023-09-19T04:59:51;15.80;99.90
11320;DHT22;5715;48.234;14.320;2023-09-19T05:02:43;15.70;99.90
11320;DHT22;5715;48.234;14.320;2023-09-19T05:05:35;15.70;99.90
11320;DHT22;5715;48.234;14.320;2023-09-19T05:08:26;15.80;99.90
11320;DHT22;5715;48.234;14.320;2023-09-19T05:11:21;15.80;99.90
11320;DHT22;5715;48.234;14.320;2023-09-19T05:14:16;15.80;99.90
11320;DHT22;5715;48.234;14.320;2023-09-19T05:17:04;15.80;99.90
11320;DHT22;5715;48.234;14.320;2023-09-19T05:19:52;15.80;99.90
11320;DHT22;5715;48.234;14.320;2023-09-19T05:23:11;16.00;99.90
11320;DHT22;5715;48.234;14.320;2023-09-19T05:26:00;15.90;99.90
11320;DHT22;5715;48.234;14.320;2023-09-19T05:28:51;15.90;99.90
11320;DHT22;5715;48.234;14.320;2023-09-19T05:31:43;16.00;99.90
11320;DHT22;5715;48.234;14.320;2023-09-19T05:34:51;16.00;99.90
11320;DHT22;5715;48.234;14.320;2023-09-19T05:37:40;16.00;99.90
11320;DHT22;5715;48.234;14.320;2023-09-19T05:40:34;16.10;99.90
11320;DHT22;5715;48.234;14.320;2023-09-19T05:43:37;16.10;99.90
11320;DHT22;5715;48.234;14.320;2023-09-19T05:46:35;16.20;99.90
11320;DHT22;5715;48.234;14.320;2023-09-19T05:49:26;16.20;99.90
11320;DHT22;5715;48.234;14.320;2023-09-19T05:52:35;16.30;99.90
11320;DHT22;5715;48.234;14.320;2023-09-19T05:58:44;16.30;99.90
11320;DHT22;5715;48.234;14.320;2023-09-19T06:01:38;16.40;99.90
11320;DHT22;5715;48.234;14.320;2023-09-19T06:04:30;16.40;99.90
11320;DHT22;5715;48.234;14.320;2023-09-19T06:07:37;16.40;99.90
11320;DHT22;5715;48.234;14.320;2023-09-19T06:10:51;16.50;99.90
11320;DHT22;5715;48.234;14.320;2023-09-19T06:13:46;16.60;99.90
11320;DHT22;5715;48.234;14.320;2023-09-19T06:16:37;16.60;99.90
11320;DHT22;5715;48.234;14.320;2023-09-19T06:19:30;16.60;99.90
11320;DHT22;5715;48.234;14.320;2023-09-19T06:22:22;16.60;99.90
11320;DHT22;5715;48.234;14.320;2023-09-19T06:25:12;16.70;99.90
11320;DHT22;5715;48.234;14.320;2023-09-19T06:28:17;16.70;99.90
11320;DHT22;5715;48.234;14.320;2023-09-19T06:31:15;16.80;99.90
11320;DHT22;5715;48.234;14.320;2023-09-19T06:34:06;16.90;99.90
11320;DHT22;5715;48.234;14.320;2023-09-19T06:37:00;16.90;99.90
11320;DHT22;5715;48.234;14.320;2023-09-19T06:39:52;17.00;99.90
11320;DHT22;5715;48.234;14.320;2023-09-19T06:42:52;17.00;99.90
11320;DHT22;5715;48.234;14.320;2023-09-19T06:46:04;17.00;99.90
11320;DHT22;5715;48.234;14.320;2023-09-19T06:49:00;17.20;99.90
11320;DHT22;5715;48.234;14.320;2023-09-19T06:51:57;17.40;99.90
11320;DHT22;5715;48.234;14.320;2023-09-19T06:54:46;17.40;99.90
11320;DHT22;5715;48.234;14.320;2023-09-19T06:57:34;17.40;99.90
11320;DHT22;5715;48.234;14.320;2023-09-19T07:00:28;17.40;99.90
11320;DHT22;5715;48.234;14.320;2023-09-19T07:03:21;17.60;99.90
11320;DHT22;5715;48.234;14.320;2023-09-19T07:06:12;17.80;99.90
11320;DHT22;5715;48.234;14.320;2023-09-19T07:09:13;18.00;99.90
11320;DHT22;5715;48.234;14.320;2023-09-19T07:12:00;18.10;99.90
11320;DHT22;5715;48.234;14.320;2023-09-19T07:15:02;18.20;99.90
11320;DHT22;5715;48.234;14.320;2023-09-19T07:18:02;18.20;99.90
11320;DHT22;5715;48.234;14.320;2023-09-19T07:21:23;18.20;99.90
11320;DHT22;5715;48.234;14.320;2023-09-19T07:24:33;18.20;99.90
11320;DHT22;5715;48.234;14.320;2023-09-19T07:27:41;18.30;99.90
11320;DHT22;5715;48.234;14.320;2023-09-19T07:30:35;18.30;99.90
11320;DHT22;5715;48.234;14.320;2023-09-19T07:33:37;18.30;99.90
11320;DHT22;5715;48.234;14.320;2023-09-19T07:36:27;18.30;99.90
11320;DHT22;5715;48.234;14.320;2023-09-19T07:39:22;18.40;99.90
11320;DHT22;5715;48.234;14.320;2023-09-19T07:42:19;18.50;99.90
11320;DHT22;5715;48.234;14.320;2023-09-19T07:45:28;18.80;99.90
11320;DHT22;5715;48.234;14.320;2023-09-19T07:48:28;19.20;99.90
11320;DHT22;5715;48.234;14.320;2023-09-19T07:51:19;19.40;99.90
11320;DHT22;5715;48.234;14.320;2023-09-19T07:54:10;19.60;99.90
11320;DHT22;5715;48.234;14.320;2023-09-19T07:57:31;19.60;99.90
11320;DHT22;5715;48.234;14.320;2023-09-19T08:00:31;19.50;99.90
11320;DHT22;5715;48.234;14.320;2023-09-19T08:03:34;19.40;99.90
11320;DHT22;5715;48.234;14.320;2023-09-19T08:06:57;19.40;99.90
11320;DHT22;5715;48.234;14.320;2023-09-19T08:09:47;19.50;99.90
11320;DHT22;5715;48.234;14.320;2023-09-19T08:12:35;19.50;99.90
11320;DHT22;5715;48.234;14.320;2023-09-19T08:15:23;19.60;99.90
11320;DHT22;5715;48.234;14.320;2023-09-19T08:18:11;19.60;99.90
11320;DHT22;5715;48.234;14.320;2023-09-19T08:20:59;19.60;99.90
11320;DHT22;5715;48.234;14.320;2023-09-19T08:23:47;19.60;99.90
11320;DHT22;5715;48.234;14.320;2023-09-19T08:26:35;19.50;99.90
11320;DHT22;5715;48.234;14.320;2023-09-19T08:29:25;19.50;99.90
11320;DHT22;5715;48.234;14.320;2023-09-19T08:32:14;19.50;99.90
11320;DHT22;5715;48.234;14.320;2023-09-19T08:35:02;19.50;99.90
11320;DHT22;5715;48.234;14.320;2023-09-19T08:37:54;19.40;99.90
11320;DHT22;5715;48.234;14.320;2023-09-19T08:40:43;19.40;99.90
11320;DHT22;5715;48.234;14.320;2023-09-19T08:43:31;19.40;99.90
11320;DHT22;5715;48.234;14.320;2023-09-19T08:46:24;19.40;99.90
11320;DHT22;5715;48.234;14.320;2023-09-19T08:49:40;19.40;99.90
11320;DHT22;5715;48.234;14.320;2023-09-19T08:52:52;19.30;99.90
11320;DHT22;5715;48.234;14.320;2023-09-19T08:55:44;19.30;99.90
11320;DHT22;5715;48.234;14.320;2023-09-19T09:01:55;19.20;99.90
11320;DHT22;5715;48.234;14.320;2023-09-19T09:04:45;19.10;99.90
11320;DHT22;5715;48.234;14.320;2023-09-19T09:07:39;19.10;99.90
11320;DHT22;5715;48.234;14.320;2023-09-19T09:10:28;19.20;99.90
11320;DHT22;5715;48.234;14.320;2023-09-19T09:13:17;19.30;99.90
11320;DHT22;5715;48.234;14.320;2023-09-19T09:16:07;19.40;99.90
11320;DHT22;5715;48.234;14.320;2023-09-19T09:18:57;19.40;99.90
11320;DHT22;5715;48.234;14.320;2023-09-19T09:21:44;19.60;99.90
11320;DHT22;5715;48.234;14.320;2023-09-19T09:24:32;19.80;99.90
11320;DHT22;5715;48.234;14.320;2023-09-19T09:27:25;19.80;99.90
11320;DHT22;5715;48.234;14.320;2023-09-19T09:30:33;19.70;99.90
11320;DHT22;5715;48.234;14.320;2023-09-19T09:33:22;19.70;99.90
11320;DHT22;5715;48.234;14.320;2023-09-19T09:36:10;19.70;99.90
11320;DHT22;5715;48.234;14.320;2023-09-19T09:39:00;19.80;99.90
11320;DHT22;5715;48.234;14.320;2023-09-19T09:42:03;20.00;99.90
11320;DHT22;5715;48.234;14.320;2023-09-19T09:48:15;20.80;99.90
11320;DHT22;5715;48.234;14.320;2023-09-19T09:55:00;21.40;99.90
11320;DHT22;5715;48.234;14.320;2023-09-19T09:58:30;21.70;99.90
11320;DHT22;5715;48.234;14.320;2023-09-19T10:01:21;22.00;99.90
11320;DHT22;5715;48.234;14.320;2023-09-19T10:04:27;22.00;99.90
11320;DHT22;5715;48.234;14.320;2023-09-19T10:07:28;22.00;99.90
11320;DHT22;5715;48.234;14.320;2023-09-19T10:10:41;22.00;99.90
11320;DHT22;5715;48.234;14.320;2023-09-19T10:13:30;22.30;99.90
11320;DHT22;5715;48.234;14.320;2023-09-19T10:16:23;22.60;99.90
11320;DHT22;5715;48.234;14.320;2023-09-19T10:19:17;22.40;99.90
11320;DHT22;5715;48.234;14.320;2023-09-19T10:22:14;22.10;99.90
11320;DHT22;5715;48.234;14.320;2023-09-19T10:25:04;21.90;99.90
11320;DHT22;5715;48.234;14.320;2023-09-19T10:28:02;21.80;99.90
11320;DHT22;5715;48.234;14.320;2023-09-19T10:30:56;22.00;99.90
11320;DHT22;5715;48.234;14.320;2023-09-19T10:33:45;22.30;99.90
11320;DHT22;5715;48.234;14.320;2023-09-19T10:36:36;22.80;99.90
11320;DHT22;5715;48.234;14.320;2023-09-19T10:39:25;23.30;99.90
11320;DHT22;5715;48.234;14.320;2023-09-19T10:42:19;23.60;99.90
11320;DHT22;5715;48.234;14.320;2023-09-19T10:45:08;23.60;99.90
11320;DHT22;5715;48.234;14.320;2023-09-19T10:48:03;23.80;99.90
11320;DHT22;5715;48.234;14.320;2023-09-19T10:50:55;23.60;99.90
11320;DHT22;5715;48.234;14.320;2023-09-19T10:54:23;23.30;99.90
11320;DHT22;5715;48.234;14.320;2023-09-19T10:57:21;23.00;99.90
11320;DHT22;5715;48.234;14.320;2023-09-19T11:00:15;22.50;99.90
11320;DHT22;5715;48.234;14.320;2023-09-19T11:03:16;22.60;99.90
11320;DHT22;5715;48.234;14.320;2023-09-19T11:06:21;22.70;99.90
11320;DHT22;5715;48.234;14.320;2023-09-19T11:09:10;22.80;99.90
11320;DHT22;5715;48.234;14.320;2023-09-19T11:11:58;23.10;99.90
11320;DHT22;5715;48.234;14.320;2023-09-19T11:14:47;23.20;99.90
11320;DHT22;5715;48.234;14.320;2023-09-19T11:17:39;23.10;99.90
11320;DHT22;5715;48.234;14.320;2023-09-19T11:20:39;23.50;99.90
11320;DHT22;5715;48.234;14.320;2023-09-19T11:23:29;24.00;99.90
11320;DHT22;5715;48.234;14.320;2023-09-19T11:26:43;24.40;99.90
11320;DHT22;5715;48.234;14.320;2023-09-19T11:29:38;24.70;99.90
11320;DHT22;5715;48.234;14.320;2023-09-19T11:33:24;24.90;99.90
11320;DHT22;5715;48.234;14.320;2023-09-19T11:36:35;25.00;99.90
11320;DHT22;5715;48.234;14.320;2023-09-19T11:39:26;24.70;99.90
11320;DHT22;5715;48.234;14.320;2023-09-19T11:42:46;23.50;99.90
11320;DHT22;5715;48.234;14.320;2023-09-19T11:48:38;22.20;99.90
11320;DHT22;5715;48.234;14.320;2023-09-19T11:51:28;21.90;99.90
11320;DHT22;5715;48.234;14.320;2023-09-19T11:54:32;21.70;99.90
11320;DHT22;5715;48.234;14.320;2023-09-19T11:57:20;21.50;99.90
11320;DHT22;5715;48.234;14.320;2023-09-19T12:00:17;21.30;99.90
11320;DHT22;5715;48.234;14.320;2023-09-19T12:03:11;21.50;99.90
11320;DHT22;5715;48.234;14.320;2023-09-19T12:06:02;21.60;99.90
11320;DHT22;5715;48.234;14.320;2023-09-19T12:09:02;21.50;99.90
11320;DHT22;5715;48.234;14.320;2023-09-19T12:11:54;21.30;99.90
11320;DHT22;5715;48.234;14.320;2023-09-19T12:14:42;21.40;99.90
11320;DHT22;5715;48.234;14.320;2023-09-19T12:17:39;21.50;99.90
11320;DHT22;5715;48.234;14.320;2023-09-19T12:20:45;21.60;99.90
11320;DHT22;5715;48.234;14.320;2023-09-19T12:23:37;21.60;99.90
11320;DHT22;5715;48.234;14.320;2023-09-19T12:26:28;21.60;99.90
11320;DHT22;5715;48.234;14.320;2023-09-19T12:29:17;21.60;99.90
11320;DHT22;5715;48.234;14.320;2023-09-19T12:32:06;21.70;99.90
11320;DHT22;5715;48.234;14.320;2023-09-19T12:34:54;21.80;99.90
11320;DHT22;5715;48.234;14.320;2023-09-19T12:37:45;21.90;99.90
11320;DHT22;5715;48.234;14.320;2023-09-19T12:40:35;22.00;99.90
11320;DHT22;5715;48.234;14.320;2023-09-19T12:43:26;22.20;99.90
11320;DHT22;5715;48.234;14.320;2023-09-19T12:46:23;22.30;99.90
11320;DHT22;5715;48.234;14.320;2023-09-19T12:49:19;22.30;99.90
11320;DHT22;5715;48.234;14.320;2023-09-19T12:52:08;22.50;99.90
11320;DHT22;5715;48.234;14.320;2023-09-19T12:54:57;22.50;99.90
11320;DHT22;5715;48.234;14.320;2023-09-19T12:57:59;22.60;99.90
11320;DHT22;5715;48.234;14.320;2023-09-19T13:00:47;22.80;99.90
11320;DHT22;5715;48.234;14.320;2023-09-19T13:03:38;23.00;99.90
11320;DHT22;5715;48.234;14.320;2023-09-19T13:06:37;23.10;99.90
11320;DHT22;5715;48.234;14.320;2023-09-19T13:09:30;23.10;99.90
11320;DHT22;5715;48.234;14.320;2023-09-19T13:12:35;23.20;99.90
11320;DHT22;5715;48.234;14.320;2023-09-19T13:15:27;23.30;99.90
11320;DHT22;5715;48.234;14.320;2023-09-19T13:18:16;23.40;99.90
11320;DHT22;5715;48.234;14.320;2023-09-19T13:21:06;23.70;99.90
11320;DHT22;5715;48.234;14.320;2023-09-19T13:24:19;23.80;99.90
11320;DHT22;5715;48.234;14.320;2023-09-19T13:27:08;23.80;99.90
11320;DHT22;5715;48.234;14.320;2023-09-19T13:29:56;23.90;99.90
11320;DHT22;5715;48.234;14.320;2023-09-19T13:32:44;24.00;99.90
11320;DHT22;5715;48.234;14.320;2023-09-19T13:35:34;24.10;99.90
11320;DHT22;5715;48.234;14.320;2023-09-19T13:38:22;23.90;99.90
11320;DHT22;5715;48.234;14.320;2023-09-19T13:41:10;23.80;99.90
11320;DHT22;5715;48.234;14.320;2023-09-19T13:43:58;23.70;99.90
11320;DHT22;5715;48.234;14.320;2023-09-19T13:46:46;23.60;99.90
11320;DHT22;5715;48.234;14.320;2023-09-19T13:49:34;23.30;99.90
11320;DHT22;5715;48.234;14.320;2023-09-19T13:52:22;20.30;99.90
11320;DHT22;5715;48.234;14.320;2023-09-19T13:55:11;18.50;99.90
11320;DHT22;5715;48.234;14.320;2023-09-19T13:58:02;17.70;99.90
11320;DHT22;5715;48.234;14.320;2023-09-19T14:00:53;17.20;99.90
11320;DHT22;5715;48.234;14.320;2023-09-19T14:03:45;16.90;99.90
11320;DHT22;5715;48.234;14.320;2023-09-19T14:06:34;16.70;99.90
11320;DHT22;5715;48.234;14.320;2023-09-19T14:09:21;16.70;99.90
11320;DHT22;5715;48.234;14.320;2023-09-19T14:12:10;16.50;99.90
11320;DHT22;5715;48.234;14.320;2023-09-19T14:14:58;16.60;99.90
11320;DHT22;5715;48.234;14.320;2023-09-19T14:17:45;16.60;99.90
11320;DHT22;5715;48.234;14.320;2023-09-19T14:20:38;16.70;99.90
11320;DHT22;5715;48.234;14.320;2023-09-19T14:23:29;16.80;99.90
11320;DHT22;5715;48.234;14.320;2023-09-19T14:26:21;16.90;99.90
11320;DHT22;5715;48.234;14.320;2023-09-19T14:29:10;16.90;99.90
11320;DHT22;5715;48.234;14.320;2023-09-19T14:31:58;17.00;99.90
11320;DHT22;5715;48.234;14.320;2023-09-19T14:34:46;17.00;99.90
11320;DHT22;5715;48.234;14.320;2023-09-19T14:37:34;17.00;99.90
11320;DHT22;5715;48.234;14.320;2023-09-19T14:40:22;17.00;99.90
11320;DHT22;5715;48.234;14.320;2023-09-19T14:43:09;17.10;99.90
11320;DHT22;5715;48.234;14.320;2023-09-19T14:45:57;17.20;99.90
11320;DHT22;5715;48.234;14.320;2023-09-19T14:48:45;17.20;99.90
11320;DHT22;5715;48.234;14.320;2023-09-19T14:51:34;17.40;99.90
11320;DHT22;5715;48.234;14.320;2023-09-19T14:54:23;17.60;99.90
11320;DHT22;5715;48.234;14.320;2023-09-19T14:57:11;17.90;99.90
11320;DHT22;5715;48.234;14.320;2023-09-19T15:00:00;18.10;99.90
11320;DHT22;5715;48.234;14.320;2023-09-19T15:02:48;18.20;99.90
11320;DHT22;5715;48.234;14.320;2023-09-19T15:05:37;18.50;99.90
11320;DHT22;5715;48.234;14.320;2023-09-19T15:08:26;18.80;99.90
11320;DHT22;5715;48.234;14.320;2023-09-19T15:11:17;18.80;99.90
11320;DHT22;5715;48.234;14.320;2023-09-19T15:14:05;18.80;99.90
11320;DHT22;5715;48.234;14.320;2023-09-19T15:16:53;18.60;99.90
11320;DHT22;5715;48.234;14.320;2023-09-19T15:19:40;18.60;99.90
11320;DHT22;5715;48.234;14.320;2023-09-19T15:22:28;18.60;99.90
11320;DHT22;5715;48.234;14.320;2023-09-19T15:25:15;18.60;99.90
11320;DHT22;5715;48.234;14.320;2023-09-19T15:28:03;18.70;99.90
11320;DHT22;5715;48.234;14.320;2023-09-19T15:31:00;18.90;99.90
11320;DHT22;5715;48.234;14.320;2023-09-19T15:33:49;19.00;99.90
11320;DHT22;5715;48.234;14.320;2023-09-19T15:36:37;19.10;99.90
11320;DHT22;5715;48.234;14.320;2023-09-19T15:39:26;19.10;99.90
11320;DHT22;5715;48.234;14.320;2023-09-19T15:42:20;19.00;99.90
11320;DHT22;5715;48.234;14.320;2023-09-19T15:45:08;19.00;99.90
11320;DHT22;5715;48.234;14.320;2023-09-19T15:47:57;19.00;99.90
11320;DHT22;5715;48.234;14.320;2023-09-19T15:50:44;19.00;99.90
11320;DHT22;5715;48.234;14.320;2023-09-19T15:53:45;19.00;99.90
11320;DHT22;5715;48.234;14.320;2023-09-19T15:56:35;19.00;99.90
11320;DHT22;5715;48.234;14.320;2023-09-19T15:59:23;19.00;99.90
11320;DHT22;5715;48.234;14.320;2023-09-19T16:02:11;19.00;99.90
11320;DHT22;5715;48.234;14.320;2023-09-19T16:04:59;19.10;99.90
11320;DHT22;5715;48.234;14.320;2023-09-19T16:07:47;19.10;99.90
11320;DHT22;5715;48.234;14.320;2023-09-19T16:10:36;19.10;99.90
11320;DHT22;5715;48.234;14.320;2023-09-19T16:13:25;19.10;99.90
11320;DHT22;5715;48.234;14.320;2023-09-19T16:16:13;19.10;99.90
11320;DHT22;5715;48.234;14.320;2023-09-19T16:19:04;19.10;99.90
11320;DHT22;5715;48.234;14.320;2023-09-19T16:21:52;19.10;99.90
11320;DHT22;5715;48.234;14.320;2023-09-19T16:24:40;19.10;99.90
11320;DHT22;5715;48.234;14.320;2023-09-19T16:27:27;19.10;99.90
11320;DHT22;5715;48.234;14.320;2023-09-19T16:30:15;19.00;99.90
11320;DHT22;5715;48.234;14.320;2023-09-19T16:33:05;19.00;99.90
11320;DHT22;5715;48.234;14.320;2023-09-19T16:35:53;18.90;99.90
11320;DHT22;5715;48.234;14.320;2023-09-19T16:38:42;18.80;99.90
11320;DHT22;5715;48.234;14.320;2023-09-19T16:41:30;18.80;99.90
11320;DHT22;5715;48.234;14.320;2023-09-19T16:44:18;18.70;99.90
11320;DHT22;5715;48.234;14.320;2023-09-19T16:47:08;18.60;99.90
11320;DHT22;5715;48.234;14.320;2023-09-19T16:49:55;18.50;99.90
11320;DHT22;5715;48.234;14.320;2023-09-19T16:52:43;18.40;99.90
11320;DHT22;5715;48.234;14.320;2023-09-19T16:55:33;18.30;99.90
11320;DHT22;5715;48.234;14.320;2023-09-19T16:58:21;18.20;99.90
11320;DHT22;5715;48.234;14.320;2023-09-19T17:01:13;18.10;99.90
11320;DHT22;5715;48.234;14.320;2023-09-19T17:04:02;18.00;99.90
11320;DHT22;5715;48.234;14.320;2023-09-19T17:06:52;17.80;99.90
11320;DHT22;5715;48.234;14.320;2023-09-19T17:09:40;17.70;99.90
11320;DHT22;5715;48.234;14.320;2023-09-19T17:12:30;17.50;99.90
11320;DHT22;5715;48.234;14.320;2023-09-19T17:15:20;17.40;99.90
11320;DHT22;5715;48.234;14.320;2023-09-19T17:18:08;17.20;99.90
11320;DHT22;5715;48.234;14.320;2023-09-19T17:20:55;17.20;99.90
11320;DHT22;5715;48.234;14.320;2023-09-19T17:23:43;17.00;99.90
11320;DHT22;5715;48.234;14.320;2023-09-19T17:26:30;16.90;99.90
11320;DHT22;5715;48.234;14.320;2023-09-19T17:29:20;16.70;99.90
11320;DHT22;5715;48.234;14.320;2023-09-19T17:32:08;16.60;99.90
11320;DHT22;5715;48.234;14.320;2023-09-19T17:34:55;16.60;99.90
11320;DHT22;5715;48.234;14.320;2023-09-19T17:37:44;16.40;99.90
11320;DHT22;5715;48.234;14.320;2023-09-19T17:40:39;16.30;99.90
11320;DHT22;5715;48.234;14.320;2023-09-19T17:43:27;16.20;99.90
11320;DHT22;5715;48.234;14.320;2023-09-19T17:46:16;16.10;99.90
11320;DHT22;5715;48.234;14.320;2023-09-19T17:49:04;16.10;99.90
11320;DHT22;5715;48.234;14.320;2023-09-19T17:51:53;16.00;99.90
11320;DHT22;5715;48.234;14.320;2023-09-19T17:54:40;16.00;99.90
11320;DHT22;5715;48.234;14.320;2023-09-19T17:57:28;15.90;99.90
11320;DHT22;5715;48.234;14.320;2023-09-19T18:00:17;15.80;99.90
11320;DHT22;5715;48.234;14.320;2023-09-19T18:03:05;15.70;99.90
11320;DHT22;5715;48.234;14.320;2023-09-19T18:05:53;15.60;99.90
11320;DHT22;5715;48.234;14.320;2023-09-19T18:08:41;15.50;99.90
11320;DHT22;5715;48.234;14.320;2023-09-19T18:11:29;15.50;99.90
11320;DHT22;5715;48.234;14.320;2023-09-19T18:14:18;15.50;99.90
11320;DHT22;5715;48.234;14.320;2023-09-19T18:17:05;15.50;99.90
11320;DHT22;5715;48.234;14.320;2023-09-19T18:19:53;15.40;99.90
11320;DHT22;5715;48.234;14.320;2023-09-19T18:22:41;15.30;99.90
11320;DHT22;5715;48.234;14.320;2023-09-19T18:25:29;15.30;99.90
11320;DHT22;5715;48.234;14.320;2023-09-19T18:28:17;15.20;99.90
11320;DHT22;5715;48.234;14.320;2023-09-19T18:31:06;15.20;99.90
11320;DHT22;5715;48.234;14.320;2023-09-19T18:33:54;15.20;99.90
11320;DHT22;5715;48.234;14.320;2023-09-19T18:36:41;15.20;99.90
11320;DHT22;5715;48.234;14.320;2023-09-19T18:39:29;15.10;99.90
11320;DHT22;5715;48.234;14.320;2023-09-19T18:42:17;15.00;99.90
11320;DHT22;5715;48.234;14.320;2023-09-19T18:45:05;14.90;99.90
11320;DHT22;5715;48.234;14.320;2023-09-19T18:47:53;14.80;99.90
11320;DHT22;5715;48.234;14.320;2023-09-19T18:50:40;14.80;99.90
11320;DHT22;5715;48.234;14.320;2023-09-19T18:53:28;14.80;99.90